createdAt,value
2023-02-19T00:01:08.147Z,5.03
2023-02-19T00:04:23.829Z,5.08
2023-02-19T00:07:28.637Z,5.10
2023-02-19T00:10:32.581Z,5.11
2023-02-19T00:13:38.753Z,4.99
2023-02-19T00:16:44.742Z,5.18
2023-02-19T00:19:49.828Z,5.06
2023-02-19T00:22:59.531Z,5.05
2023-02-19T00:26:17.495Z,5.10
2023-02-19T00:29:27.009Z,4.92
2023-02-19T00:32:32.560Z,5.02
2023-02-19T00:35:39.655Z,4.73
2023-02-19T00:38:45.747Z,4.50
2023-02-19T00:41:50.232Z,4.59
2023-02-19T00:44:55.271Z,4.05
2023-02-19T00:48:03.064Z,4.43
2023-02-19T00:51:08.786Z,4.39
2023-02-19T00:54:14.203Z,4.37
2023-02-19T00:57:17.970Z,4.36
2023-02-19T01:00:24.005Z,4.63
2023-02-19T01:03:31.207Z,4.40
2023-02-19T01:06:39.359Z,4.69
2023-02-19T01:09:44.581Z,4.41
2023-02-19T01:12:48.783Z,4.51
2023-02-19T01:15:53.990Z,4.01
2023-02-19T01:18:58.397Z,4.01
2023-02-19T01:22:03.512Z,3.96
2023-02-19T01:25:09.930Z,4.28
2023-02-19T01:28:14.150Z,4.28
2023-02-19T01:31:20.517Z,4.44
2023-02-19T01:34:24.557Z,4.47
2023-02-19T01:37:30.858Z,4.33
2023-02-19T01:40:39.729Z,4.07
2023-02-19T01:44:04.525Z,4.21
2023-02-19T01:47:08.353Z,4.28
2023-02-19T01:50:12.822Z,4.15
2023-02-19T01:53:23.288Z,4.42
2023-02-19T01:56:30.056Z,4.31
2023-02-19T01:59:35.019Z,4.11
2023-02-19T02:02:41.697Z,4.09
2023-02-19T02:05:56.249Z,3.63
2023-02-19T02:09:19.558Z,4.19
2023-02-19T02:12:23.787Z,3.92
2023-02-19T02:15:36.604Z,3.98
2023-02-19T02:18:54.558Z,3.96
2023-02-19T02:22:10.218Z,3.91
2023-02-19T02:25:45.351Z,4.01
2023-02-19T02:29:38.762Z,4.04
2023-02-19T02:32:54.762Z,4.00
2023-02-19T02:36:05.423Z,3.97
2023-02-19T02:39:17.634Z,3.99
2023-02-19T02:42:30.179Z,3.64
2023-02-19T02:45:45.375Z,4.12
2023-02-19T02:49:05.116Z,4.16
2023-02-19T02:52:36.980Z,3.93
2023-02-19T02:55:45.606Z,4.03
2023-02-19T02:58:57.335Z,3.92
2023-02-19T03:02:14.361Z,4.06
2023-02-19T03:05:43.221Z,3.89
2023-02-19T03:08:55.230Z,4.00
2023-02-19T03:12:21.403Z,4.05
2023-02-19T03:15:47.082Z,4.15
2023-02-19T03:19:13.916Z,3.56
2023-02-19T03:22:28.069Z,3.72
2023-02-19T03:25:51.843Z,3.92
2023-02-19T03:29:22.387Z,3.69
2023-02-19T03:32:33.920Z,3.80
2023-02-19T03:35:43.258Z,3.79
2023-02-19T03:38:57.693Z,3.73
2023-02-19T03:42:13.560Z,3.85
2023-02-19T03:45:36.522Z,4.01
2023-02-19T03:48:52.509Z,3.91
2023-02-19T03:52:02.945Z,3.54
2023-02-19T03:55:14.349Z,3.76
2023-02-19T03:58:27.004Z,3.68
2023-02-19T04:01:37.968Z,3.50
2023-02-19T04:04:49.102Z,3.78
2023-02-19T04:07:58.333Z,3.48
2023-02-19T04:11:11.533Z,3.43
2023-02-19T04:14:22.060Z,3.05
2023-02-19T04:17:32.088Z,3.27
2023-02-19T04:20:41.956Z,3.41
2023-02-19T04:23:47.738Z,3.68
2023-02-19T04:26:55.231Z,3.42
2023-02-19T04:30:01.611Z,3.67
2023-02-19T04:33:07.075Z,3.51
2023-02-19T04:36:14.440Z,3.33
2023-02-19T04:39:19.387Z,3.48
2023-02-19T04:42:24.668Z,3.23
2023-02-19T04:45:47.411Z,3.18
2023-02-19T04:48:51.217Z,3.31
2023-02-19T04:51:55.086Z,3.41
2023-02-19T04:54:58.621Z,3.28
2023-02-19T04:58:04.012Z,3.55
2023-02-19T05:01:10.213Z,3.55
2023-02-19T05:04:14.637Z,3.54
2023-02-19T05:07:18.794Z,3.51
2023-02-19T05:10:23.731Z,3.42
2023-02-19T05:13:31.856Z,3.28
2023-02-19T05:16:37.307Z,3.22
2023-02-19T05:19:41.372Z,3.25
2023-02-19T05:22:45.914Z,2.88
2023-02-19T05:25:49.477Z,3.23
2023-02-19T05:28:57.447Z,3.07
2023-02-19T05:32:02.950Z,2.97
2023-02-19T05:35:08.019Z,2.91
2023-02-19T05:38:13.088Z,3.00
2023-02-19T05:41:19.708Z,3.08
2023-02-19T05:44:26.143Z,3.36
2023-02-19T05:47:30.565Z,3.27
2023-02-19T05:50:39.869Z,3.18
2023-02-19T05:53:52.088Z,3.41
2023-02-19T05:56:57.520Z,3.33
2023-02-19T06:00:03.300Z,3.23
2023-02-19T06:03:17.872Z,3.16
2023-02-19T06:06:23.119Z,3.32
2023-02-19T06:09:28.130Z,3.04
2023-02-19T06:12:33.663Z,3.11
2023-02-19T06:15:40.577Z,3.16
2023-02-19T06:18:45.100Z,2.96
2023-02-19T06:21:51.847Z,2.70
2023-02-19T06:24:56.995Z,3.00
2023-02-19T06:28:03.096Z,3.36
2023-02-19T06:31:12.397Z,3.63
2023-02-19T06:34:16.760Z,3.77
2023-02-19T06:37:21.102Z,3.91
2023-02-19T06:40:46.561Z,4.07
2023-02-19T06:43:50.782Z,4.27
2023-02-19T06:46:57.532Z,4.51
2023-02-19T06:50:02.834Z,4.65
2023-02-19T06:53:38.138Z,4.87
2023-02-19T06:56:46.048Z,4.90
2023-02-19T06:59:59.017Z,5.04
2023-02-19T07:03:06.523Z,5.19
2023-02-19T07:06:10.376Z,5.25
2023-02-19T07:09:16.935Z,5.25
2023-02-19T07:12:23.933Z,5.35
2023-02-19T07:15:29.969Z,5.56
2023-02-19T07:18:50.195Z,5.62
2023-02-19T07:22:00.549Z,5.73
2023-02-19T07:25:13.292Z,5.88
2023-02-19T07:28:19.517Z,5.84
2023-02-19T07:31:25.389Z,5.94
2023-02-19T07:34:43.991Z,6.15
2023-02-19T07:37:48.249Z,6.28
2023-02-19T07:40:54.353Z,6.34
2023-02-19T07:43:57.986Z,6.42
2023-02-19T07:47:05.503Z,6.60
2023-02-19T07:50:13.970Z,6.73
2023-02-19T07:53:20.525Z,6.88
2023-02-19T07:56:40.953Z,6.78
2023-02-19T08:00:01.381Z,7.01
2023-02-19T08:03:12.516Z,7.13
2023-02-19T08:06:19.297Z,7.31
2023-02-19T08:09:34.126Z,7.39
2023-02-19T08:13:16.141Z,7.42
2023-02-19T08:16:33.250Z,7.54
2023-02-19T08:19:47.707Z,7.58
2023-02-19T08:22:52.742Z,7.72
2023-02-19T08:26:01.022Z,7.78
2023-02-19T08:29:09.161Z,7.80
2023-02-19T08:32:17.157Z,7.99
2023-02-19T08:35:21.084Z,8.15
2023-02-19T08:38:28.295Z,8.25
2023-02-19T08:41:33.120Z,8.36
2023-02-19T08:44:38.030Z,8.47
2023-02-19T08:47:43.448Z,8.54
2023-02-19T08:50:56.936Z,8.69
2023-02-19T08:54:05.299Z,8.80
2023-02-19T08:57:13.615Z,8.89
2023-02-19T09:00:18.510Z,8.98
2023-02-19T09:03:26.741Z,9.06
2023-02-19T09:06:31.729Z,9.16
2023-02-19T09:09:39.653Z,9.23
2023-02-19T09:12:45.286Z,9.38
2023-02-19T09:15:50.687Z,9.46
2023-02-19T09:18:54.394Z,9.61
2023-02-19T09:21:59.843Z,9.71
2023-02-19T09:25:08.106Z,9.75
2023-02-19T09:28:11.973Z,9.84
2023-02-19T09:31:23.370Z,9.99
2023-02-19T09:34:29.737Z,10.07
2023-02-19T09:37:34.246Z,10.19
2023-02-19T09:40:40.523Z,10.27
2023-02-19T09:43:45.441Z,10.37
2023-02-19T09:46:52.365Z,10.42
2023-02-19T09:50:02.100Z,10.51
2023-02-19T09:53:15.789Z,10.58
2023-02-19T09:56:26.780Z,10.61
2023-02-19T09:59:38.282Z,10.70
2023-02-19T10:03:07.284Z,10.75
2023-02-19T10:06:20.564Z,10.86
2023-02-19T10:09:27.042Z,10.98
2023-02-19T10:12:35.168Z,11.05
2023-02-19T10:15:43.945Z,11.15
2023-02-19T10:18:48.909Z,11.23
2023-02-19T10:21:52.751Z,11.31
2023-02-19T10:24:58.052Z,11.40
2023-02-19T10:28:05.892Z,11.41
2023-02-19T10:31:20.555Z,11.40
2023-02-19T10:34:24.633Z,11.48
2023-02-19T10:37:29.460Z,11.53
2023-02-19T10:40:34.624Z,11.64
2023-02-19T10:43:44.545Z,11.68
2023-02-19T10:46:52.041Z,11.70
2023-02-19T10:50:02.509Z,11.78
2023-02-19T10:53:07.955Z,11.85
2023-02-19T10:56:16.332Z,11.86
2023-02-19T10:59:26.781Z,11.85
2023-02-19T11:02:32.218Z,11.91
2023-02-19T11:05:39.386Z,11.92
2023-02-19T11:08:54.442Z,11.91
2023-02-19T11:11:59.590Z,12.03
2023-02-19T11:15:22.868Z,12.01
2023-02-19T11:18:28.613Z,12.12
2023-02-19T11:21:33.545Z,12.18
2023-02-19T11:24:40.656Z,12.23
2023-02-19T11:27:56.327Z,12.23
2023-02-19T11:31:25.414Z,12.25
2023-02-19T11:34:31.230Z,12.35
2023-02-19T11:37:34.758Z,12.35
2023-02-19T11:40:45.516Z,12.36
2023-02-19T11:44:03.234Z,12.40
2023-02-19T11:47:34.529Z,12.43
2023-02-19T11:50:50.009Z,12.56
2023-02-19T11:54:06.121Z,12.71
2023-02-19T11:57:21.318Z,12.77
2023-02-19T12:00:31.698Z,12.82
2023-02-19T12:03:55.938Z,12.87
2023-02-19T12:07:13.147Z,12.95
2023-02-19T12:10:23.481Z,13.06
2023-02-19T12:13:41.542Z,13.22
2023-02-19T12:16:55.140Z,13.37
2023-02-19T12:20:13.762Z,13.50
2023-02-19T12:23:42.113Z,13.61
2023-02-19T12:26:52.854Z,13.71
2023-02-19T12:30:18.404Z,13.75
2023-02-19T12:33:56.910Z,13.82
2023-02-19T12:37:17.797Z,13.87
2023-02-19T12:40:44.588Z,13.91
2023-02-19T12:43:56.639Z,13.90
2023-02-19T12:47:03.459Z,14.02
2023-02-19T12:50:16.630Z,14.09
2023-02-19T12:53:35.076Z,14.05
2023-02-19T12:56:43.652Z,14.08
2023-02-19T14:06:09.957Z,12.00
2023-02-19T14:09:47.510Z,12.19
2023-02-19T14:12:51.090Z,12.30
2023-02-19T14:15:55.198Z,12.47
2023-02-19T14:18:59.469Z,12.60
2023-02-19T14:22:45.062Z,12.80
2023-02-19T14:26:36.630Z,12.84
2023-02-19T14:29:44.523Z,12.83
2023-02-19T14:33:25.634Z,13.02
2023-02-19T14:36:51.558Z,12.96
2023-02-19T14:40:01.481Z,13.00
2023-02-19T14:43:07.394Z,13.03
2023-02-19T14:46:19.855Z,13.06
2023-02-19T14:49:31.446Z,12.88
2023-02-19T14:52:44.502Z,12.93
2023-02-19T14:55:51.991Z,13.04
2023-02-19T14:59:10.725Z,12.96
2023-02-19T15:02:17.867Z,12.90
2023-02-19T15:05:31.025Z,12.82
2023-02-19T15:08:39.304Z,12.78
2023-02-19T15:11:52.067Z,12.83
2023-02-19T15:15:02.392Z,12.93
2023-02-19T15:18:10.026Z,12.99
2023-02-19T15:21:27.718Z,12.98
2023-02-19T15:24:31.766Z,12.96
2023-02-19T15:27:40.229Z,12.91
2023-02-19T15:30:44.910Z,12.97
2023-02-19T15:33:55.946Z,12.95
2023-02-19T15:37:16.075Z,12.94
2023-02-19T15:40:30.921Z,12.93
2023-02-19T15:43:51.238Z,12.95
2023-02-19T15:46:57.387Z,12.92
2023-02-19T15:50:09.866Z,12.88
2023-02-19T15:53:47.362Z,12.84
2023-02-19T15:57:10.929Z,12.80
2023-02-19T16:00:23.404Z,12.78
2023-02-19T16:03:29.285Z,12.77
2023-02-19T16:06:54.677Z,12.69
2023-02-19T16:10:09.669Z,12.63
2023-02-19T16:13:14.452Z,12.56
2023-02-19T16:16:27.927Z,12.50
2023-02-19T16:19:44.497Z,12.46
2023-02-19T16:22:49.662Z,12.34
2023-02-19T16:26:00.333Z,12.22
2023-02-19T16:29:29.685Z,12.02
2023-02-19T16:32:54.449Z,11.90
2023-02-19T16:36:32.629Z,11.87
2023-02-19T16:40:27.458Z,11.74
2023-02-19T16:43:42.178Z,11.63
2023-02-19T16:47:04.402Z,11.56
2023-02-19T16:50:19.760Z,11.41
2023-02-19T16:53:30.708Z,11.14
2023-02-19T16:56:39.229Z,11.00
2023-02-19T16:59:48.736Z,10.98
2023-02-19T17:02:55.013Z,10.75
2023-02-19T17:06:00.399Z,10.63
2023-02-19T17:09:09.859Z,10.73
2023-02-19T17:12:25.928Z,10.70
2023-02-19T17:15:33.043Z,10.56
2023-02-19T17:18:38.937Z,10.41
2023-02-19T17:21:47.277Z,10.43
2023-02-19T17:24:51.499Z,10.08
2023-02-19T17:27:55.992Z,10.11
2023-02-19T17:31:00.247Z,10.02
2023-02-19T17:34:05.502Z,9.88
2023-02-19T17:37:16.390Z,9.93
2023-02-19T17:40:32.779Z,9.80
2023-02-19T17:43:40.061Z,9.61
2023-02-19T17:46:50.660Z,9.51
2023-02-19T17:50:03.205Z,9.36
2023-02-19T17:53:09.742Z,9.47
2023-02-19T17:56:18.668Z,9.35
2023-02-19T17:59:29.019Z,9.33
2023-02-19T18:02:39.125Z,9.34
2023-02-19T18:05:47.470Z,9.13
2023-02-19T18:08:54.508Z,9.03
2023-02-19T18:11:58.362Z,9.02
2023-02-19T18:15:04.322Z,9.00
2023-02-19T18:18:09.857Z,9.05
2023-02-19T18:21:16.372Z,8.83
2023-02-19T18:24:27.643Z,8.77
2023-02-19T18:27:32.539Z,8.75
2023-02-19T18:30:38.181Z,8.65
2023-02-19T18:33:42.183Z,8.68
2023-02-19T18:36:46.389Z,8.49
2023-02-19T18:39:54.283Z,8.44
2023-02-19T18:43:00.606Z,8.54
2023-02-19T18:46:10.005Z,8.51
2023-02-19T18:49:14.982Z,8.47
2023-02-19T18:52:21.425Z,8.27
2023-02-19T18:55:27.595Z,8.48
2023-02-19T18:58:32.040Z,8.48
2023-02-19T19:01:36.698Z,8.35
2023-02-19T19:04:41.719Z,8.12
2023-02-19T19:07:46.646Z,7.91
2023-02-19T19:10:56.479Z,8.07
2023-02-19T19:14:11.152Z,7.83
2023-02-19T19:17:31.843Z,7.77
2023-02-19T19:20:41.333Z,7.90
2023-02-19T19:23:51.089Z,7.76
2023-02-19T19:27:00.024Z,7.69
2023-02-19T19:34:08.867Z,7.64
2023-02-19T19:37:13.203Z,7.56
2023-02-19T19:40:19.565Z,7.60
2023-02-19T19:43:28.025Z,7.58
2023-02-19T19:46:33.691Z,7.58
2023-02-19T19:49:37.784Z,7.47
2023-02-19T19:52:41.824Z,6.97
2023-02-19T19:55:45.926Z,7.01
2023-02-19T19:58:52.485Z,6.96
2023-02-19T20:01:58.773Z,7.13
2023-02-19T20:05:03.041Z,7.02
2023-02-19T20:08:07.493Z,7.00
2023-02-19T20:11:11.063Z,7.03
2023-02-19T20:14:17.601Z,7.22
2023-02-19T20:17:28.940Z,7.24
2023-02-19T20:20:41.144Z,7.13
2023-02-19T20:23:49.743Z,7.47
2023-02-19T20:26:58.493Z,7.61
2023-02-19T20:30:03.904Z,7.57
2023-02-19T20:33:08.493Z,7.71
2023-02-19T20:36:13.704Z,7.58
2023-02-19T20:39:23.033Z,7.06
2023-02-19T20:42:29.894Z,7.54
2023-02-19T20:45:39.005Z,7.34
2023-02-19T20:48:43.570Z,7.18
2023-02-19T20:51:52.082Z,7.35
2023-02-19T20:54:57.930Z,7.40
2023-02-19T20:58:02.478Z,7.43
2023-02-19T21:01:09.471Z,7.36
2023-02-19T21:04:15.872Z,7.29
2023-02-19T21:07:20.014Z,7.38
2023-02-19T21:10:24.501Z,7.38
2023-02-19T21:13:31.594Z,7.61
2023-02-19T21:16:38.457Z,7.48
2023-02-19T21:19:42.224Z,7.38
2023-02-19T21:22:46.579Z,7.42
2023-02-19T21:25:54.511Z,7.62
2023-02-19T21:29:00.338Z,7.28
2023-02-19T21:32:14.197Z,7.43
2023-02-19T21:35:19.464Z,7.58
2023-02-19T21:38:24.467Z,7.55
2023-02-19T21:41:30.086Z,7.50
2023-02-19T21:44:36.573Z,7.59
2023-02-19T21:47:46.365Z,7.32
2023-02-19T21:50:51.252Z,7.32
2023-02-19T21:53:56.715Z,7.61
2023-02-19T21:57:03.894Z,7.65
2023-02-19T22:00:10.747Z,7.67
2023-02-19T22:03:18.028Z,7.57
2023-02-19T22:06:25.255Z,7.60
2023-02-19T22:09:30.161Z,7.55
2023-02-19T22:12:34.240Z,7.73
2023-02-19T22:15:38.189Z,7.60
2023-02-19T22:18:49.131Z,7.84
2023-02-19T22:21:53.453Z,7.76
2023-02-19T22:24:57.973Z,7.95
2023-02-19T22:28:05.240Z,7.91
2023-02-19T22:31:11.142Z,7.82
2023-02-19T22:34:17.806Z,7.78
2023-02-19T22:37:22.848Z,7.71
2023-02-19T22:40:26.378Z,7.84
2023-02-19T22:43:30.803Z,7.83
2023-02-19T22:46:34.873Z,7.52
2023-02-19T22:49:42.088Z,7.66
2023-02-19T22:52:48.851Z,7.52
2023-02-19T22:55:55.888Z,7.35
2023-02-19T22:59:00.247Z,7.62
2023-02-19T23:02:04.105Z,7.61
2023-02-19T23:05:09.910Z,7.99
2023-02-19T23:08:14.131Z,8.04
2023-02-19T23:11:23.379Z,8.21
2023-02-19T23:14:27.389Z,8.27
2023-02-19T23:17:31.153Z,8.46
2023-02-19T23:20:36.760Z,8.64
2023-02-19T23:23:42.381Z,8.77
2023-02-19T23:26:48.525Z,8.94
2023-02-19T23:29:55.817Z,9.08
2023-02-19T23:33:05.544Z,9.22
2023-02-19T23:36:13.320Z,9.33
2023-02-19T23:39:22.516Z,9.40
2023-02-19T23:42:28.428Z,9.45
2023-02-19T23:45:32.702Z,9.50
2023-02-19T23:48:38.262Z,9.56
2023-02-19T23:51:44.434Z,9.56
2023-02-19T23:54:48.330Z,9.54
2023-02-19T23:57:57.058Z,9.58
